createdAt,value
2022-10-09T00:01:20.718Z,101037.47
2022-10-09T00:04:24.327Z,101037.47
2022-10-09T00:07:27.443Z,101024.72
2022-10-09T00:10:30.825Z,101017.94
2022-10-09T00:13:34.090Z,101023.87
2022-10-09T00:16:37.843Z,101026.50
2022-10-09T00:19:42.426Z,101020.25
2022-10-09T00:22:46.239Z,101017.47
2022-10-09T00:25:55.089Z,101015.97
2022-10-09T00:28:59.559Z,101027.94
2022-10-09T00:32:02.674Z,101016.47
2022-10-09T00:35:06.623Z,101022.88
2022-10-09T00:38:09.946Z,101017.47
2022-10-09T00:41:16.291Z,101019.25
2022-10-09T00:44:57.992Z,101014.69
2022-10-09T00:48:05.023Z,101011.31
2022-10-09T00:51:10.181Z,101003.66
2022-10-09T00:54:16.578Z,101004.47
2022-10-09T00:57:20.988Z,101004.59
2022-10-09T01:00:24.371Z,101003.78
2022-10-09T01:03:27.499Z,100987.25
2022-10-09T01:06:44.867Z,100993.00
2022-10-09T01:09:59.244Z,100989.72
2022-10-09T01:13:28.565Z,100985.19
2022-10-09T01:16:39.747Z,100978.94
2022-10-09T01:20:04.966Z,100978.31
2022-10-09T01:23:40.400Z,100980.69
2022-10-09T01:27:15.416Z,100988.75
2022-10-09T01:30:18.852Z,100988.75
2022-10-09T01:33:22.589Z,100991.59
2022-10-09T01:36:26.168Z,100977.31
2022-10-09T01:39:31.694Z,100975.47
2022-10-09T01:42:35.414Z,100981.81
2022-10-09T01:45:41.659Z,100978.31
2022-10-09T01:48:48.165Z,100976.66
2022-10-09T01:52:08.723Z,100992.78
2022-10-09T01:55:23.904Z,100986.84
2022-10-09T01:59:01.406Z,100992.41
2022-10-09T02:02:06.606Z,100989.84
2022-10-09T02:05:12.926Z,100995.31
2022-10-09T02:08:19.619Z,100967.00
2022-10-09T02:11:26.120Z,100989.87
2022-10-09T02:14:29.224Z,100989.84
2022-10-09T02:17:40.114Z,100995.25
2022-10-09T02:20:48.561Z,100984.94
2022-10-09T02:23:55.338Z,100996.56
2022-10-09T02:27:00.578Z,101008.06
2022-10-09T02:30:09.339Z,101012.59
2022-10-09T02:33:17.510Z,101005.59
2022-10-09T02:36:21.037Z,101010.16
2022-10-09T02:39:24.196Z,100996.87
2022-10-09T02:42:27.962Z,100994.88
2022-10-09T02:45:31.060Z,100994.06
2022-10-09T02:48:36.114Z,101014.16
2022-10-09T02:51:39.225Z,101000.81
2022-10-09T02:54:42.612Z,101019.34
2022-10-09T02:57:45.930Z,101003.50
2022-10-09T03:00:51.030Z,101036.16
2022-10-09T03:03:54.056Z,101027.81
2022-10-09T03:07:00.191Z,101025.03
2022-10-09T03:10:08.874Z,101033.78
2022-10-09T03:13:12.219Z,101022.81
2022-10-09T03:16:21.827Z,101036.28
2022-10-09T03:19:27.898Z,101030.16
2022-10-09T03:22:31.141Z,101041.44
2022-10-09T03:25:37.127Z,101036.78
2022-10-09T03:28:44.334Z,101037.75
2022-10-09T03:31:52.579Z,101043.13
2022-10-09T03:34:56.542Z,101045.62
2022-10-09T03:38:00.251Z,101045.69
2022-10-09T03:41:06.471Z,101044.72
2022-10-09T03:44:09.797Z,101048.25
2022-10-09T03:47:12.987Z,101046.09
2022-10-09T03:50:16.319Z,101047.63
2022-10-09T03:53:22.185Z,101054.66
2022-10-09T03:56:25.630Z,101063.41
2022-10-09T03:59:28.851Z,101048.31
2022-10-09T04:02:34.027Z,101068.78
2022-10-09T04:05:39.252Z,101047.00
2022-10-09T04:08:42.326Z,101032.47
2022-10-09T04:11:45.466Z,101039.06
2022-10-09T04:14:49.708Z,101014.31
2022-10-09T04:17:53.191Z,101044.94
2022-10-09T04:20:57.710Z,101056.72
2022-10-09T04:24:03.787Z,101064.81
2022-10-09T04:27:08.231Z,101064.28
2022-10-09T04:30:12.020Z,101072.91
2022-10-09T04:33:15.275Z,101063.63
2022-10-09T04:36:19.069Z,101052.81
2022-10-09T04:39:22.191Z,101061.06
2022-10-09T04:42:25.717Z,101072.91
2022-10-09T04:45:28.920Z,101065.16
2022-10-09T04:48:32.803Z,101033.13
2022-10-09T04:51:36.273Z,101076.00
2022-10-09T04:54:39.596Z,101092.94
2022-10-09T04:57:42.673Z,101109.31
2022-10-09T05:00:47.094Z,101106.66
2022-10-09T05:03:51.008Z,101117.38
2022-10-09T05:06:55.336Z,101110.19
2022-10-09T05:09:58.533Z,101118.44
2022-10-09T05:13:02.014Z,101093.16
2022-10-09T05:16:07.632Z,101095.44
2022-10-09T05:19:11.151Z,101118.00
2022-10-09T05:22:14.226Z,101134.75
2022-10-09T05:25:17.499Z,101122.25
2022-10-09T05:28:20.736Z,101127.22
2022-10-09T05:31:26.964Z,101129.91
2022-10-09T05:34:30.307Z,101134.78
2022-10-09T05:37:33.863Z,101141.69
2022-10-09T05:40:37.041Z,101149.53
2022-10-09T05:43:42.893Z,101147.41
2022-10-09T05:46:46.154Z,101153.41
2022-10-09T05:49:49.557Z,101150.50
2022-10-09T05:52:52.656Z,101159.28
2022-10-09T05:55:58.516Z,101164.41
2022-10-09T05:59:07.812Z,101163.13
2022-10-09T06:02:14.537Z,101165.81
2022-10-09T06:05:17.965Z,101171.88
2022-10-09T06:08:20.914Z,101169.06
2022-10-09T06:11:28.635Z,101161.03
2022-10-09T06:14:31.989Z,101163.41
2022-10-09T06:17:37.551Z,101160.00
2022-10-09T06:20:40.739Z,101166.88
2022-10-09T06:23:50.846Z,101170.94
2022-10-09T06:26:53.921Z,101175.38
2022-10-09T06:29:58.090Z,101179.75
2022-10-09T06:33:03.964Z,101183.06
2022-10-09T06:36:10.614Z,101185.66
2022-10-09T06:39:14.057Z,101181.59
2022-10-09T06:42:19.237Z,101189.59
2022-10-09T06:45:25.783Z,101185.34
2022-10-09T06:48:31.301Z,101186.28
2022-10-09T06:51:35.962Z,101185.94
2022-10-09T06:54:40.851Z,101194.38
2022-10-09T06:57:44.205Z,101192.56
2022-10-09T07:01:03.964Z,101199.97
2022-10-09T07:04:13.347Z,101196.25
2022-10-09T07:07:16.836Z,101202.59
2022-10-09T07:10:24.909Z,101195.81
2022-10-09T07:13:30.797Z,101192.63
2022-10-09T07:16:42.465Z,101197.31
2022-10-09T07:19:45.787Z,101194.59
2022-10-09T07:22:49.093Z,101195.72
2022-10-09T07:25:52.572Z,101214.19
2022-10-09T07:28:56.551Z,101214.62
2022-10-09T07:32:00.090Z,101208.81
2022-10-09T07:35:03.586Z,101209.44
2022-10-09T07:38:07.886Z,101210.00
2022-10-09T07:41:14.849Z,101208.88
2022-10-09T07:44:25.532Z,101208.22
2022-10-09T07:47:35.432Z,101204.75
2022-10-09T07:50:40.937Z,101220.69
2022-10-09T07:53:54.853Z,101227.13
2022-10-09T07:57:04.471Z,101213.22
2022-10-09T08:00:09.639Z,101219.00
2022-10-09T08:03:15.653Z,101216.75
2022-10-09T08:06:20.971Z,101219.75
2022-10-09T08:09:24.070Z,101224.81
2022-10-09T08:12:28.636Z,101220.91
2022-10-09T08:15:31.648Z,101225.19
2022-10-09T08:18:35.375Z,101223.69
2022-10-09T08:21:38.747Z,101233.72
2022-10-09T08:24:42.109Z,101224.28
2022-10-09T08:27:45.142Z,101222.28
2022-10-09T08:30:49.270Z,101231.53
2022-10-09T08:33:54.759Z,101234.25
2022-10-09T08:36:58.773Z,101230.19
2022-10-09T08:40:02.388Z,101236.25
2022-10-09T08:43:07.648Z,101239.09
2022-10-09T08:46:55.827Z,101231.31
2022-10-09T08:50:15.149Z,101241.41
2022-10-09T08:53:37.055Z,101243.22
2022-10-09T08:56:40.409Z,101249.06
2022-10-09T08:59:44.985Z,101248.72
2022-10-09T09:03:17.516Z,101247.94
2022-10-09T09:06:41.592Z,101252.66
2022-10-09T09:09:56.293Z,101254.66
2022-10-09T09:13:27.429Z,101263.56
2022-10-09T09:16:46.333Z,101264.09
2022-10-09T09:19:55.858Z,101262.75
2022-10-09T09:23:02.190Z,101266.88
2022-10-09T09:26:16.392Z,101266.00
2022-10-09T09:29:23.738Z,101262.84
2022-10-09T09:32:31.011Z,101268.78
2022-10-09T09:35:47.194Z,101258.78
2022-10-09T09:39:26.023Z,101263.69
2022-10-09T09:42:20.994Z,101262.81
2022-10-09T09:45:26.295Z,101268.91
2022-10-09T09:48:36.308Z,101279.38
2022-10-09T09:51:39.436Z,101266.53
2022-10-09T09:54:48.875Z,101269.62
2022-10-09T09:57:52.089Z,101268.47
2022-10-09T10:00:57.452Z,101267.19
2022-10-09T10:04:03.703Z,101267.91
2022-10-09T10:07:07.145Z,101279.00
2022-10-09T10:10:25.305Z,101272.31
2022-10-09T10:13:46.797Z,101278.41
2022-10-09T10:16:52.607Z,101285.59
2022-10-09T10:19:55.880Z,101284.50
2022-10-09T10:23:00.822Z,101282.62
2022-10-09T10:26:21.682Z,101269.19
2022-10-09T10:29:45.473Z,101277.25
2022-10-09T10:33:02.685Z,101286.03
2022-10-09T10:36:10.151Z,101282.44
2022-10-09T10:39:24.285Z,101287.84
2022-10-09T10:42:38.281Z,101279.00
2022-10-09T10:45:44.222Z,101273.78
2022-10-09T10:48:48.269Z,101284.53
2022-10-09T10:51:58.945Z,101279.16
2022-10-09T10:55:12.265Z,101277.28
2022-10-09T10:58:27.246Z,101282.31
2022-10-09T11:01:44.677Z,101286.16
2022-10-09T11:05:14.186Z,101283.53
2022-10-09T11:09:07.596Z,101282.50
2022-10-09T11:12:47.746Z,101277.66
2022-10-09T11:16:32.967Z,101284.87
2022-10-09T11:20:17.132Z,101277.34
2022-10-09T11:23:56.026Z,101266.03
2022-10-09T11:27:27.090Z,101273.53
2022-10-09T11:30:42.128Z,101260.53
2022-10-09T11:33:48.795Z,101257.34
2022-10-09T11:36:52.975Z,101259.50
2022-10-09T11:40:16.578Z,101264.28
2022-10-09T11:43:26.142Z,101252.94
2022-10-09T11:47:18.594Z,101250.28
2022-10-09T11:50:48.461Z,101231.69
2022-10-09T11:53:53.592Z,101243.16
2022-10-09T11:57:06.129Z,101235.62
2022-10-09T12:00:47.646Z,101219.28
2022-10-09T12:04:09.448Z,101227.09
2022-10-09T12:07:13.334Z,101229.06
2022-10-09T12:10:34.816Z,101226.94
2022-10-09T12:13:39.214Z,101219.00
2022-10-09T12:16:45.334Z,101216.53
2022-10-09T12:20:08.788Z,101222.53
2022-10-09T12:23:28.466Z,101233.84
2022-10-09T12:26:34.074Z,101212.69
2022-10-09T12:29:51.260Z,101222.69
2022-10-09T12:32:59.931Z,101215.53
2022-10-09T12:36:27.721Z,101221.09
2022-10-09T12:39:33.834Z,101211.31
2022-10-09T12:42:37.348Z,101218.66
2022-10-09T12:45:46.684Z,101223.94
2022-10-09T12:48:51.257Z,101212.22
2022-10-09T12:51:57.567Z,101213.00
2022-10-09T12:55:02.869Z,101213.41
2022-10-09T12:58:15.236Z,101209.72
2022-10-09T13:01:19.732Z,101199.03
2022-10-09T13:04:31.467Z,101182.16
2022-10-09T13:07:35.533Z,101189.22
2022-10-09T13:10:42.097Z,101190.06
2022-10-09T13:13:53.476Z,101190.97
2022-10-09T13:16:56.746Z,101199.47
2022-10-09T13:20:05.931Z,101182.06
2022-10-09T13:23:27.992Z,101185.53
2022-10-09T13:26:31.538Z,101182.78
2022-10-09T13:29:35.361Z,101187.44
2022-10-09T13:32:38.758Z,101182.75
2022-10-09T13:35:42.466Z,101172.19
2022-10-09T13:38:47.467Z,101179.06
2022-10-09T13:41:55.984Z,101180.09
2022-10-09T13:44:59.398Z,101177.06
2022-10-09T13:48:02.603Z,101167.53
2022-10-09T13:51:06.790Z,101173.63
2022-10-09T13:54:13.119Z,101167.84
2022-10-09T13:57:16.973Z,101169.59
2022-10-09T14:00:20.500Z,101175.09
2022-10-09T14:03:24.325Z,101177.06
2022-10-09T14:06:28.302Z,101176.75
2022-10-09T14:09:31.677Z,101170.94
2022-10-09T14:12:34.923Z,101170.88
2022-10-09T14:15:40.480Z,101173.53
2022-10-09T14:18:44.667Z,101164.91
2022-10-09T14:21:55.845Z,101170.38
2022-10-09T14:24:59.318Z,101187.62
2022-10-09T14:28:04.033Z,101189.50
2022-10-09T14:31:08.534Z,101184.06
2022-10-09T14:34:13.924Z,101178.41
2022-10-09T14:37:29.844Z,101174.91
2022-10-09T14:40:45.401Z,101176.41
2022-10-09T14:43:56.928Z,101165.22
2022-10-09T14:47:00.309Z,101183.94
2022-10-09T14:50:05.662Z,101179.50
2022-10-09T14:53:11.012Z,101178.94
2022-10-09T14:56:17.040Z,101176.00
2022-10-09T14:59:20.796Z,101180.75
2022-10-09T15:02:24.691Z,101169.56
2022-10-09T15:05:30.481Z,101153.78
2022-10-09T15:08:36.598Z,101173.31
2022-10-09T15:11:42.624Z,101178.78
2022-10-09T15:14:47.474Z,101170.44
2022-10-09T15:17:53.682Z,101187.75
2022-10-09T15:20:59.711Z,101186.00
2022-10-09T15:24:05.337Z,101176.00
2022-10-09T15:27:08.876Z,101190.78
2022-10-09T15:30:13.061Z,101159.75
2022-10-09T15:33:16.798Z,101198.06
2022-10-09T15:36:21.658Z,101211.12
2022-10-09T15:40:04.336Z,101207.84
2022-10-09T15:43:22.621Z,101202.22
2022-10-09T15:46:33.414Z,101202.75
2022-10-09T15:49:51.297Z,101210.66
2022-10-09T15:53:07.305Z,101198.88
2022-10-09T15:56:25.020Z,101220.41
2022-10-09T15:59:42.723Z,101210.50
2022-10-09T16:02:48.554Z,101209.75
2022-10-09T16:06:10.828Z,101216.13
2022-10-09T16:09:15.932Z,101224.19
2022-10-09T16:12:19.513Z,101210.19
2022-10-09T16:15:29.247Z,101222.84
2022-10-09T16:18:33.749Z,101220.69
2022-10-09T16:21:41.345Z,101232.97
2022-10-09T16:24:47.130Z,101229.87
2022-10-09T16:27:50.516Z,101226.75
2022-10-09T16:31:00.729Z,101201.84
2022-10-09T16:34:06.576Z,101232.78
2022-10-09T16:37:12.133Z,101255.62
2022-10-09T16:40:17.025Z,101258.44
2022-10-09T16:43:24.789Z,101265.75
2022-10-09T16:46:31.830Z,101270.47
2022-10-09T16:49:37.289Z,101275.56
2022-10-09T16:52:50.418Z,101261.41
2022-10-09T16:56:12.887Z,101266.81
2022-10-09T16:59:17.792Z,101222.75
2022-10-09T17:02:35.193Z,101280.00
2022-10-09T17:05:44.271Z,101266.22
2022-10-09T17:09:00.782Z,101279.03
2022-10-09T17:12:07.811Z,101291.47
2022-10-09T17:15:13.926Z,101271.41
2022-10-09T17:18:22.554Z,101255.47
2022-10-09T17:22:23.278Z,101302.47
2022-10-09T17:25:06.977Z,101276.91
2022-10-09T17:28:11.635Z,101273.72
2022-10-09T17:31:21.059Z,101283.47
2022-10-09T17:34:27.262Z,101318.41
2022-10-09T17:37:40.029Z,101333.50
2022-10-09T17:40:46.366Z,101315.50
2022-10-09T17:43:55.081Z,101306.62
2022-10-09T17:47:01.075Z,101324.00
2022-10-09T17:50:06.959Z,101333.75
2022-10-09T17:53:16.571Z,101286.75
2022-10-09T17:56:20.973Z,101320.75
2022-10-09T17:59:30.497Z,101328.91
2022-10-09T18:02:33.907Z,101324.47
2022-10-09T18:05:53.269Z,101313.88
2022-10-09T18:08:58.495Z,101321.97
2022-10-09T18:12:05.016Z,101322.59
2022-10-09T18:15:11.719Z,101329.44
2022-10-09T18:18:16.056Z,101320.38
2022-10-09T18:21:19.919Z,101337.63
2022-10-09T18:24:31.147Z,101346.22
2022-10-09T18:27:37.622Z,101342.88
2022-10-09T18:30:45.190Z,101327.84
2022-10-09T18:33:53.256Z,101354.41
2022-10-09T18:37:04.067Z,101351.75
2022-10-09T18:40:14.467Z,101313.28
2022-10-09T18:43:18.634Z,101354.91
2022-10-09T18:46:26.518Z,101349.66
2022-10-09T18:49:32.247Z,101350.53
2022-10-09T18:52:38.412Z,101358.75
2022-10-09T18:55:43.787Z,101361.72
2022-10-09T18:58:51.235Z,101373.28
2022-10-09T19:01:57.466Z,101365.72
2022-10-09T19:05:01.926Z,101370.03
2022-10-09T19:08:06.263Z,101374.22
2022-10-09T19:11:10.937Z,101362.59
2022-10-09T19:14:16.091Z,101377.91
2022-10-09T19:17:19.858Z,101377.34
2022-10-09T19:20:24.037Z,101344.09
2022-10-09T19:23:31.077Z,101379.19
2022-10-09T19:26:37.446Z,101364.34
2022-10-09T19:29:43.945Z,101371.38
2022-10-09T19:32:49.698Z,101395.47
2022-10-09T19:35:55.858Z,101359.59
2022-10-09T19:39:01.102Z,101405.81
2022-10-09T19:42:06.732Z,101395.63
2022-10-09T19:45:12.140Z,101397.88
2022-10-09T19:48:18.515Z,101423.41
2022-10-09T19:51:24.819Z,101411.72
2022-10-09T19:54:28.476Z,101388.53
2022-10-09T19:57:32.447Z,101449.94
2022-10-09T20:00:43.340Z,101429.25
2022-10-09T20:03:48.452Z,101445.72
2022-10-09T20:06:51.949Z,101451.94
2022-10-09T20:10:04.760Z,101440.28
2022-10-09T20:13:08.219Z,101402.97
2022-10-09T20:16:14.905Z,101411.81
2022-10-09T20:19:22.304Z,101446.59
2022-10-09T20:22:26.049Z,101437.72
2022-10-09T20:25:29.360Z,101468.25
2022-10-09T20:28:39.571Z,101465.97
2022-10-09T20:31:45.638Z,101456.31
2022-10-09T20:34:51.102Z,101429.72
2022-10-09T20:37:56.311Z,101391.41
2022-10-09T20:41:10.907Z,101458.31
2022-10-09T20:44:14.897Z,101464.41
2022-10-09T20:47:19.877Z,101453.91
2022-10-09T20:50:23.351Z,101440.03
2022-10-09T20:53:26.753Z,101465.75
2022-10-09T20:56:31.951Z,101444.47
2022-10-09T20:59:35.719Z,101474.59
2022-10-09T21:02:39.476Z,101440.22
2022-10-09T21:05:43.684Z,101438.25
2022-10-09T21:08:47.287Z,101484.53
2022-10-09T21:11:50.848Z,101490.03
2022-10-09T21:14:53.963Z,101483.81
2022-10-09T21:17:57.267Z,101477.94
2022-10-09T21:21:05.823Z,101481.50
2022-10-09T21:24:09.243Z,101487.31
2022-10-09T21:27:12.329Z,101483.66
2022-10-09T21:30:15.793Z,101465.41
2022-10-09T21:33:19.504Z,101478.41
2022-10-09T21:36:34.697Z,101484.63
2022-10-09T21:39:37.740Z,101487.94
2022-10-09T21:42:41.214Z,101473.00
2022-10-09T21:45:45.345Z,101482.47
2022-10-09T21:48:48.712Z,101477.37
2022-10-09T21:51:52.992Z,101495.69
2022-10-09T21:54:56.287Z,101492.06
2022-10-09T21:57:59.994Z,101472.12
2022-10-09T22:01:04.528Z,101491.94
2022-10-09T22:04:08.146Z,101499.16
2022-10-09T22:07:11.259Z,101483.63
2022-10-09T22:10:15.496Z,101491.84
2022-10-09T22:13:20.088Z,101492.44
2022-10-09T22:16:24.040Z,101491.22
2022-10-09T22:19:27.126Z,101485.88
2022-10-09T22:22:30.559Z,101467.09
2022-10-09T22:25:33.841Z,101488.50
2022-10-09T22:28:37.518Z,101493.16
2022-10-09T22:31:40.523Z,101503.41
2022-10-09T22:34:43.791Z,101445.03
2022-10-09T22:37:47.194Z,101467.78
2022-10-09T22:40:51.788Z,101478.13
2022-10-09T22:43:57.690Z,101497.72
2022-10-09T22:47:01.642Z,101485.41
2022-10-09T22:50:05.406Z,101497.81
2022-10-09T22:53:08.762Z,101482.09
2022-10-09T22:56:15.318Z,101491.97
2022-10-09T22:59:19.155Z,101483.53
2022-10-09T23:02:22.288Z,101492.47
2022-10-09T23:05:25.972Z,101466.50
2022-10-09T23:08:29.401Z,101476.84
2022-10-09T23:11:32.975Z,101496.06
2022-10-09T23:14:36.013Z,101493.84
2022-10-09T23:17:39.468Z,101499.91
2022-10-09T23:20:43.678Z,101499.59
2022-10-09T23:23:48.042Z,101503.38
2022-10-09T23:26:52.020Z,101502.66
2022-10-09T23:29:55.938Z,101504.87
2022-10-09T23:32:59.225Z,101507.47
2022-10-09T23:36:03.384Z,101501.31
2022-10-09T23:39:08.048Z,101504.28
2022-10-09T23:42:11.798Z,101510.31
2022-10-09T23:45:16.073Z,101511.63
2022-10-09T23:48:20.677Z,101512.78
2022-10-09T23:51:25.001Z,101518.28
2022-10-09T23:54:28.682Z,101518.13
2022-10-09T23:57:34.905Z,101497.56
